sensor_id;sensor_type;location;lat;lon;timestamp;pressure;altitude;pressure_sealevel;temperature;humidity
13604;BME280;24578;48.264;11.436;2022-10-19T00:02:43;97097.69;;;11.07;100.00
13604;BME280;24578;48.264;11.436;2022-10-19T00:05:44;97101.38;;;11.03;100.00
13604;BME280;24578;48.264;11.436;2022-10-19T00:08:44;97094.72;;;10.99;100.00
13604;BME280;24578;48.264;11.436;2022-10-19T00:11:45;97091.66;;;10.92;100.00
13604;BME280;24578;48.264;11.436;2022-10-19T00:14:46;97092.78;;;10.88;100.00
13604;BME280;24578;48.264;11.436;2022-10-19T00:17:46;97095.56;;;10.85;100.00
13604;BME280;24578;48.264;11.436;2022-10-19T00:20:46;97098.44;;;10.80;100.00
13604;BME280;24578;48.264;11.436;2022-10-19T00:23:46;97096.09;;;10.75;100.00
13604;BME280;24578;48.264;11.436;2022-10-19T00:26:47;97096.34;;;10.71;100.00
13604;BME280;24578;48.264;11.436;2022-10-19T00:29:47;97095.72;;;10.67;100.00
13604;BME280;24578;48.264;11.436;2022-10-19T00:32:47;97101.91;;;10.64;100.00
13604;BME280;24578;48.264;11.436;2022-10-19T00:35:49;97093.56;;;10.59;100.00
13604;BME280;24578;48.264;11.436;2022-10-19T00:38:49;97092.84;;;10.57;100.00
13604;BME280;24578;48.264;11.436;2022-10-19T00:41:50;97093.09;;;10.53;100.00
13604;BME280;24578;48.264;11.436;2022-10-19T00:47:50;97090.13;;;10.44;100.00
13604;BME280;24578;48.264;11.436;2022-10-19T00:50:50;97094.66;;;10.41;100.00
13604;BME280;24578;48.264;11.436;2022-10-19T00:53:52;97100.75;;;10.40;100.00
13604;BME280;24578;48.264;11.436;2022-10-19T00:56:53;97085.97;;;10.42;100.00
13604;BME280;24578;48.264;11.436;2022-10-19T00:59:54;97090.88;;;10.46;100.00
13604;BME280;24578;48.264;11.436;2022-10-19T01:02:54;97085.34;;;10.53;100.00
13604;BME280;24578;48.264;11.436;2022-10-19T01:05:55;97091.91;;;10.58;100.00
13604;BME280;24578;48.264;11.436;2022-10-19T01:08:55;97085.47;;;10.65;100.00
13604;BME280;24578;48.264;11.436;2022-10-19T01:15:09;97078.44;;;10.82;100.00
13604;BME280;24578;48.264;11.436;2022-10-19T01:18:20;97084.09;;;10.89;100.00
13604;BME280;24578;48.264;11.436;2022-10-19T01:27:43;97070.56;;;11.12;100.00
13604;BME280;24578;48.264;11.436;2022-10-19T01:30:54;97065.03;;;11.19;100.00
13604;BME280;24578;48.264;11.436;2022-10-19T01:34:18;97058.69;;;11.23;100.00
13604;BME280;24578;48.264;11.436;2022-10-19T01:40:30;97065.91;;;11.32;100.00
13604;BME280;24578;48.264;11.436;2022-10-19T01:43:36;97063.84;;;11.37;100.00
13604;BME280;24578;48.264;11.436;2022-10-19T01:46:40;97059.34;;;11.41;100.00
13604;BME280;24578;48.264;11.436;2022-10-19T01:49:48;97058.28;;;11.43;100.00
13604;BME280;24578;48.264;11.436;2022-10-19T01:52:50;97060.78;;;11.45;100.00
13604;BME280;24578;48.264;11.436;2022-10-19T01:55:51;97061.53;;;11.47;100.00
13604;BME280;24578;48.264;11.436;2022-10-19T01:58:54;97061.53;;;11.47;100.00
13604;BME280;24578;48.264;11.436;2022-10-19T02:01:55;97060.53;;;11.50;100.00
13604;BME280;24578;48.264;11.436;2022-10-19T02:04:56;97061.25;;;11.52;100.00
13604;BME280;24578;48.264;11.436;2022-10-19T02:08:02;97061.03;;;11.55;100.00
13604;BME280;24578;48.264;11.436;2022-10-19T02:11:05;97060.03;;;11.57;100.00
13604;BME280;24578;48.264;11.436;2022-10-19T02:14:08;97069.25;;;11.62;100.00
13604;BME280;24578;48.264;11.436;2022-10-19T02:17:10;97061.28;;;11.65;100.00
13604;BME280;24578;48.264;11.436;2022-10-19T02:20:11;97057.59;;;11.69;100.00
13604;BME280;24578;48.264;11.436;2022-10-19T02:23:12;97047.94;;;11.71;100.00
13604;BME280;24578;48.264;11.436;2022-10-19T02:26:14;97047.66;;;11.76;100.00
13604;BME280;24578;48.264;11.436;2022-10-19T02:29:15;97047.47;;;11.79;100.00
13604;BME280;24578;48.264;11.436;2022-10-19T02:32:15;97048.09;;;11.82;100.00
13604;BME280;24578;48.264;11.436;2022-10-19T02:35:15;97035.84;;;11.84;100.00
13604;BME280;24578;48.264;11.436;2022-10-19T02:38:17;97041.84;;;11.85;100.00
13604;BME280;24578;48.264;11.436;2022-10-19T02:41:27;97041.84;;;11.85;100.00
13604;BME280;24578;48.264;11.436;2022-10-19T02:44:49;97033.25;;;11.84;100.00
13604;BME280;24578;48.264;11.436;2022-10-19T02:47:57;97038.44;;;11.84;100.00
13604;BME280;24578;48.264;11.436;2022-10-19T02:50:58;97041.97;;;11.83;100.00
13604;BME280;24578;48.264;11.436;2022-10-19T02:53:59;97041.03;;;11.84;100.00
13604;BME280;24578;48.264;11.436;2022-10-19T02:56:59;97042.69;;;11.85;100.00
13604;BME280;24578;48.264;11.436;2022-10-19T02:59:59;97032.13;;;11.88;100.00
13604;BME280;24578;48.264;11.436;2022-10-19T03:03:00;97037.09;;;11.92;100.00
13604;BME280;24578;48.264;11.436;2022-10-19T03:06:01;97034.44;;;11.93;100.00
13604;BME280;24578;48.264;11.436;2022-10-19T03:09:02;97038.56;;;11.96;100.00
13604;BME280;24578;48.264;11.436;2022-10-19T03:12:02;97029.84;;;11.97;100.00
13604;BME280;24578;48.264;11.436;2022-10-19T03:15:03;97027.09;;;12.00;100.00
13604;BME280;24578;48.264;11.436;2022-10-19T03:18:03;97025.13;;;12.03;100.00
13604;BME280;24578;48.264;11.436;2022-10-19T03:21:04;97018.81;;;12.08;100.00
13604;BME280;24578;48.264;11.436;2022-10-19T03:24:05;97013.44;;;12.11;100.00
13604;BME280;24578;48.264;11.436;2022-10-19T03:27:05;97018.31;;;12.15;100.00
13604;BME280;24578;48.264;11.436;2022-10-19T03:30:05;97010.31;;;12.18;100.00
13604;BME280;24578;48.264;11.436;2022-10-19T03:33:05;97014.34;;;12.23;100.00
13604;BME280;24578;48.264;11.436;2022-10-19T03:36:13;97012.28;;;12.28;100.00
13604;BME280;24578;48.264;11.436;2022-10-19T03:39:14;97018.94;;;12.32;100.00
13604;BME280;24578;48.264;11.436;2022-10-19T03:42:15;97010.22;;;12.33;100.00
13604;BME280;24578;48.264;11.436;2022-10-19T03:45:15;97003.19;;;12.35;100.00
13604;BME280;24578;48.264;11.436;2022-10-19T03:48:21;97006.50;;;12.37;100.00
13604;BME280;24578;48.264;11.436;2022-10-19T03:51:22;97012.41;;;12.39;100.00
13604;BME280;24578;48.264;11.436;2022-10-19T03:54:22;97002.75;;;12.41;100.00
13604;BME280;24578;48.264;11.436;2022-10-19T03:57:22;97006.91;;;12.44;100.00
13604;BME280;24578;48.264;11.436;2022-10-19T04:00:23;97002.44;;;12.46;100.00
13604;BME280;24578;48.264;11.436;2022-10-19T04:03:23;97001.41;;;12.48;100.00
13604;BME280;24578;48.264;11.436;2022-10-19T04:06:25;96999.53;;;12.51;100.00
13604;BME280;24578;48.264;11.436;2022-10-19T04:09:25;97002.03;;;12.52;100.00
13604;BME280;24578;48.264;11.436;2022-10-19T04:12:26;97001.09;;;12.53;100.00
13604;BME280;24578;48.264;11.436;2022-10-19T04:15:27;96997.69;;;12.53;100.00
13604;BME280;24578;48.264;11.436;2022-10-19T04:18:27;96989.88;;;12.53;100.00
13604;BME280;24578;48.264;11.436;2022-10-19T04:21:28;97001.09;;;12.53;100.00
13604;BME280;24578;48.264;11.436;2022-10-19T04:24:29;97001.22;;;12.52;100.00
13604;BME280;24578;48.264;11.436;2022-10-19T04:27:29;96994.13;;;12.54;100.00
13604;BME280;24578;48.264;11.436;2022-10-19T04:30:29;96989.66;;;12.56;100.00
13604;BME280;24578;48.264;11.436;2022-10-19T04:33:29;96988.63;;;12.58;100.00
13604;BME280;24578;48.264;11.436;2022-10-19T04:36:30;96984.16;;;12.60;100.00
13604;BME280;24578;48.264;11.436;2022-10-19T04:39:30;96984.16;;;12.60;100.00
13604;BME280;24578;48.264;11.436;2022-10-19T04:42:30;96989.38;;;12.60;100.00
13604;BME280;24578;48.264;11.436;2022-10-19T04:45:31;96984.97;;;12.61;100.00
13604;BME280;24578;48.264;11.436;2022-10-19T04:48:32;96986.66;;;12.62;100.00
13604;BME280;24578;48.264;11.436;2022-10-19T04:51:32;96985.91;;;12.60;100.00
13604;BME280;24578;48.264;11.436;2022-10-19T04:54:32;96987.69;;;12.59;100.00
13604;BME280;24578;48.264;11.436;2022-10-19T04:57:33;96987.69;;;12.59;100.00
13604;BME280;24578;48.264;11.436;2022-10-19T05:00:33;96980.72;;;12.60;100.00
13604;BME280;24578;48.264;11.436;2022-10-19T05:03:34;96975.41;;;12.61;100.00
13604;BME280;24578;48.264;11.436;2022-10-19T05:06:34;96980.59;;;12.61;100.00
13604;BME280;24578;48.264;11.436;2022-10-19T05:09:34;96978.13;;;12.60;100.00
13604;BME280;24578;48.264;11.436;2022-10-19T05:12:34;96975.72;;;12.57;100.00
13604;BME280;24578;48.264;11.436;2022-10-19T05:15:35;96968.69;;;12.59;100.00
13604;BME280;24578;48.264;11.436;2022-10-19T05:18:35;96968.59;;;12.60;100.00
13604;BME280;24578;48.264;11.436;2022-10-19T05:21:35;96977.19;;;12.61;100.00
13604;BME280;24578;48.264;11.436;2022-10-19T05:24:35;96975.31;;;12.63;100.00
13604;BME280;24578;48.264;11.436;2022-10-19T05:27:36;96967.41;;;12.64;100.00
13604;BME280;24578;48.264;11.436;2022-10-19T05:30:36;96967.31;;;12.66;100.00
13604;BME280;24578;48.264;11.436;2022-10-19T05:33:38;96974.28;;;12.66;100.00
13604;BME280;24578;48.264;11.436;2022-10-19T05:36:39;96971.69;;;12.66;100.00
13604;BME280;24578;48.264;11.436;2022-10-19T05:39:39;96982.06;;;12.66;100.00
13604;BME280;24578;48.264;11.436;2022-10-19T05:42:39;96975.13;;;12.66;100.00
13604;BME280;24578;48.264;11.436;2022-10-19T05:45:40;96975.94;;;12.67;100.00
13604;BME280;24578;48.264;11.436;2022-10-19T05:48:40;96975.84;;;12.68;100.00
13604;BME280;24578;48.264;11.436;2022-10-19T05:51:40;96984.56;;;12.67;100.00
13604;BME280;24578;48.264;11.436;2022-10-19T05:54:41;96982.78;;;12.68;100.00
13604;BME280;24578;48.264;11.436;2022-10-19T05:57:41;96985.28;;;12.69;100.00
13604;BME280;24578;48.264;11.436;2022-10-19T06:00:41;96982.47;;;12.72;100.00
13604;BME280;24578;48.264;11.436;2022-10-19T06:03:41;96988.31;;;12.76;100.00
13604;BME280;24578;48.264;11.436;2022-10-19T06:06:42;96988.19;;;12.77;100.00
13604;BME280;24578;48.264;11.436;2022-10-19T06:09:42;96989.72;;;12.80;100.00
13604;BME280;24578;48.264;11.436;2022-10-19T06:12:42;96986.81;;;12.85;100.00
13604;BME280;24578;48.264;11.436;2022-10-19T06:15:42;96990.88;;;12.89;100.00
13604;BME280;24578;48.264;11.436;2022-10-19T06:18:43;96993.25;;;12.92;100.00
13604;BME280;24578;48.264;11.436;2022-10-19T06:21:43;96990.44;;;12.95;100.00
13604;BME280;24578;48.264;11.436;2022-10-19T06:24:44;96993.78;;;12.97;100.00
13604;BME280;24578;48.264;11.436;2022-10-19T06:27:44;96990.00;;;13.01;100.00
13604;BME280;24578;48.264;11.436;2022-10-19T06:30:44;97000.19;;;13.04;100.00
13604;BME280;24578;48.264;11.436;2022-10-19T06:33:45;96997.59;;;13.04;100.00
13604;BME280;24578;48.264;11.436;2022-10-19T06:36:45;97006.84;;;13.08;100.00
13604;BME280;24578;48.264;11.436;2022-10-19T06:39:45;97006.63;;;13.12;100.00
13604;BME280;24578;48.264;11.436;2022-10-19T06:42:45;97006.41;;;13.15;100.00
13604;BME280;24578;48.264;11.436;2022-10-19T06:45:46;97017.31;;;13.20;100.00
13604;BME280;24578;48.264;11.436;2022-10-19T06:48:56;97017.09;;;13.23;100.00
13604;BME280;24578;48.264;11.436;2022-10-19T06:51:56;97020.41;;;13.25;100.00
13604;BME280;24578;48.264;11.436;2022-10-19T06:54:56;97022.69;;;13.30;100.00
13604;BME280;24578;48.264;11.436;2022-10-19T06:57:57;97019.03;;;13.32;100.00
13604;BME280;24578;48.264;11.436;2022-10-19T07:01:00;97018.81;;;13.35;100.00
13604;BME280;24578;48.264;11.436;2022-10-19T07:04:01;97016.00;;;13.38;100.00
13604;BME280;24578;48.264;11.436;2022-10-19T07:07:01;97019.22;;;13.42;100.00
13604;BME280;24578;48.264;11.436;2022-10-19T07:10:02;97013.59;;;13.48;100.00
13604;BME280;24578;48.264;11.436;2022-10-19T07:13:02;97016.00;;;13.51;100.00
13604;BME280;24578;48.264;11.436;2022-10-19T07:16:03;97019.53;;;13.50;100.00
13604;BME280;24578;48.264;11.436;2022-10-19T07:19:05;97022.34;;;13.47;100.00
13604;BME280;24578;48.264;11.436;2022-10-19T07:22:05;97021.06;;;13.53;100.00
13604;BME280;24578;48.264;11.436;2022-10-19T07:25:06;97025.94;;;13.58;100.00
13604;BME280;24578;48.264;11.436;2022-10-19T07:28:06;97021.13;;;13.64;100.00
13604;BME280;24578;48.264;11.436;2022-10-19T07:31:07;97017.59;;;13.65;100.00
13604;BME280;24578;48.264;11.436;2022-10-19T07:34:11;97014.88;;;13.67;100.00
13604;BME280;24578;48.264;11.436;2022-10-19T07:37:12;97022.13;;;13.75;100.00
13604;BME280;24578;48.264;11.436;2022-10-19T07:40:12;97022.75;;;13.78;100.00
13604;BME280;24578;48.264;11.436;2022-10-19T07:43:12;97014.50;;;13.84;100.00
13604;BME280;24578;48.264;11.436;2022-10-19T07:46:14;97020.50;;;13.85;100.00
13604;BME280;24578;48.264;11.436;2022-10-19T07:49:15;97011.56;;;13.89;100.00
13604;BME280;24578;48.264;11.436;2022-10-19T07:52:17;97013.81;;;13.94;100.00
13604;BME280;24578;48.264;11.436;2022-10-19T07:55:17;97017.63;;;14.01;100.00
13604;BME280;24578;48.264;11.436;2022-10-19T07:58:18;97008.75;;;14.04;100.00
13604;BME280;24578;48.264;11.436;2022-10-19T08:01:19;97017.50;;;14.03;100.00
13604;BME280;24578;48.264;11.436;2022-10-19T08:04:20;97012.19;;;14.04;100.00
13604;BME280;24578;48.264;11.436;2022-10-19T08:07:20;97010.19;;;14.08;100.00
13604;BME280;24578;48.264;11.436;2022-10-19T08:10:20;97018.47;;;14.13;100.00
13604;BME280;24578;48.264;11.436;2022-10-19T08:13:21;97021.22;;;14.23;100.00
13604;BME280;24578;48.264;11.436;2022-10-19T08:19:21;97020.22;;;14.48;100.00
13604;BME280;24578;48.264;11.436;2022-10-19T08:22:23;97024.97;;;14.66;100.00
13604;BME280;24578;48.264;11.436;2022-10-19T08:25:23;97032.09;;;14.75;100.00
13604;BME280;24578;48.264;11.436;2022-10-19T08:28:23;97029.41;;;14.76;100.00
13604;BME280;24578;48.264;11.436;2022-10-19T08:31:23;97026.31;;;14.83;100.00
13604;BME280;24578;48.264;11.436;2022-10-19T08:34:23;97029.41;;;14.88;100.00
13604;BME280;24578;48.264;11.436;2022-10-19T08:37:24;97023.22;;;15.00;100.00
13604;BME280;24578;48.264;11.436;2022-10-19T08:40:28;97018.13;;;15.10;100.00
13604;BME280;24578;48.264;11.436;2022-10-19T08:43:31;97018.09;;;15.21;100.00
13604;BME280;24578;48.264;11.436;2022-10-19T08:49:36;97015.47;;;15.44;100.00
13604;BME280;24578;48.264;11.436;2022-10-19T08:52:37;97023.72;;;15.49;100.00
13604;BME280;24578;48.264;11.436;2022-10-19T08:55:43;97014.63;;;15.44;100.00
13604;BME280;24578;48.264;11.436;2022-10-19T09:02:13;97017.31;;;15.53;100.00
13604;BME280;24578;48.264;11.436;2022-10-19T09:05:19;97009.25;;;15.57;100.00
13604;BME280;24578;48.264;11.436;2022-10-19T09:08:21;97004.63;;;15.60;100.00
13604;BME280;24578;48.264;11.436;2022-10-19T09:11:23;97009.34;;;15.66;100.00
13604;BME280;24578;48.264;11.436;2022-10-19T09:14:27;97012.03;;;15.88;100.00
13604;BME280;24578;48.264;11.436;2022-10-19T09:17:29;97010.84;;;16.13;100.00
13604;BME280;24578;48.264;11.436;2022-10-19T09:20:37;97015.75;;;16.27;100.00
13604;BME280;24578;48.264;11.436;2022-10-19T09:23:43;97015.25;;;16.34;100.00
13604;BME280;24578;48.264;11.436;2022-10-19T09:26:54;97017.66;;;16.47;100.00
13604;BME280;24578;48.264;11.436;2022-10-19T09:29:55;97019.84;;;16.41;100.00
13604;BME280;24578;48.264;11.436;2022-10-19T09:33:00;97010.66;;;16.47;100.00
13604;BME280;24578;48.264;11.436;2022-10-19T09:36:01;97018.03;;;16.42;100.00
13604;BME280;24578;48.264;11.436;2022-10-19T09:39:02;97015.19;;;16.45;100.00
13604;BME280;24578;48.264;11.436;2022-10-19T09:45:28;97019.06;;;16.82;100.00
13604;BME280;24578;48.264;11.436;2022-10-19T09:51:37;97019.31;;;17.00;100.00
13604;BME280;24578;48.264;11.436;2022-10-19T09:54:38;97016.91;;;17.18;100.00
13604;BME280;24578;48.264;11.436;2022-10-19T09:57:42;97018.56;;;17.19;100.00
13604;BME280;24578;48.264;11.436;2022-10-19T10:00:44;97024.94;;;17.46;100.00
13604;BME280;24578;48.264;11.436;2022-10-19T10:03:44;97018.88;;;17.45;100.00
13604;BME280;24578;48.264;11.436;2022-10-19T10:06:48;97015.47;;;17.64;100.00
13604;BME280;24578;48.264;11.436;2022-10-19T10:09:49;97024.13;;;17.55;100.00
13604;BME280;24578;48.264;11.436;2022-10-19T10:12:51;97024.25;;;17.44;100.00
13604;BME280;24578;48.264;11.436;2022-10-19T10:15:55;97015.28;;;17.37;100.00
13604;BME280;24578;48.264;11.436;2022-10-19T10:19:00;97015.81;;;17.30;100.00
13604;BME280;24578;48.264;11.436;2022-10-19T10:22:02;97014.53;;;17.15;100.00
13604;BME280;24578;48.264;11.436;2022-10-19T10:25:10;97016.44;;;17.03;100.00
13604;BME280;24578;48.264;11.436;2022-10-19T10:28:21;97013.38;;;16.98;100.00
13604;BME280;24578;48.264;11.436;2022-10-19T10:31:23;97011.84;;;16.95;100.00
13604;BME280;24578;48.264;11.436;2022-10-19T10:37:50;97007.69;;;16.93;100.00
13604;BME280;24578;48.264;11.436;2022-10-19T10:40:52;96997.31;;;17.02;100.00
13604;BME280;24578;48.264;11.436;2022-10-19T10:43:57;97004.75;;;17.07;100.00
13604;BME280;24578;48.264;11.436;2022-10-19T10:46:58;96994.88;;;17.20;100.00
13604;BME280;24578;48.264;11.436;2022-10-19T10:50:00;96997.06;;;17.25;100.00
13604;BME280;24578;48.264;11.436;2022-10-19T10:53:04;96999.56;;;17.27;100.00
13604;BME280;24578;48.264;11.436;2022-10-19T10:56:05;96996.28;;;17.34;100.00
13604;BME280;24578;48.264;11.436;2022-10-19T10:59:20;96991.88;;;17.45;100.00
13604;BME280;24578;48.264;11.436;2022-10-19T11:05:25;96981.41;;;17.45;100.00
13604;BME280;24578;48.264;11.436;2022-10-19T11:11:36;96973.00;;;17.61;100.00
13604;BME280;24578;48.264;11.436;2022-10-19T11:14:48;96977.16;;;17.44;100.00
13604;BME280;24578;48.264;11.436;2022-10-19T11:17:58;96974.41;;;17.35;100.00
13604;BME280;24578;48.264;11.436;2022-10-19T11:21:11;96982.50;;;17.32;100.00
13604;BME280;24578;48.264;11.436;2022-10-19T11:30:19;96961.59;;;17.42;100.00
13604;BME280;24578;48.264;11.436;2022-10-19T11:36:58;96954.97;;;17.38;100.00
13604;BME280;24578;48.264;11.436;2022-10-19T11:40:08;96947.53;;;17.24;100.00
13604;BME280;24578;48.264;11.436;2022-10-19T11:43:14;96944.19;;;17.12;100.00
13604;BME280;24578;48.264;11.436;2022-10-19T11:46:24;96935.25;;;17.04;100.00
13604;BME280;24578;48.264;11.436;2022-10-19T11:49:33;96933.16;;;16.98;100.00
13604;BME280;24578;48.264;11.436;2022-10-19T12:02:54;96919.97;;;17.29;97.34
13604;BME280;24578;48.264;11.436;2022-10-19T12:15:31;96905.38;;;17.46;93.07
13604;BME280;24578;48.264;11.436;2022-10-19T12:21:34;96901.25;;;17.44;91.98
13604;BME280;24578;48.264;11.436;2022-10-19T12:24:35;96898.38;;;17.47;91.09
13604;BME280;24578;48.264;11.436;2022-10-19T12:27:35;96887.47;;;17.61;90.91
13604;BME280;24578;48.264;11.436;2022-10-19T12:30:37;96884.97;;;17.70;89.30
13604;BME280;24578;48.264;11.436;2022-10-19T12:33:46;96884.69;;;17.83;88.56
13604;BME280;24578;48.264;11.436;2022-10-19T12:36:54;96880.56;;;17.90;85.34
13604;BME280;24578;48.264;11.436;2022-10-19T12:43:07;96871.31;;;18.05;86.39
13604;BME280;24578;48.264;11.436;2022-10-19T12:46:11;96854.91;;;18.41;84.14
13604;BME280;24578;48.264;11.436;2022-10-19T12:55:32;96847.00;;;18.97;81.73
13604;BME280;24578;48.264;11.436;2022-10-19T12:58:38;96844.91;;;19.00;80.95
13604;BME280;24578;48.264;11.436;2022-10-19T13:01:43;96846.06;;;18.70;82.37
13604;BME280;24578;48.264;11.436;2022-10-19T13:04:49;96847.25;;;18.58;82.57
13604;BME280;24578;48.264;11.436;2022-10-19T13:07:51;96843.97;;;18.46;82.77
13604;BME280;24578;48.264;11.436;2022-10-19T13:11:04;96838.09;;;18.34;82.61
13604;BME280;24578;48.264;11.436;2022-10-19T13:23:35;96827.69;;;18.52;82.46
13604;BME280;24578;48.264;11.436;2022-10-19T13:26:36;96822.69;;;18.59;84.25
13604;BME280;24578;48.264;11.436;2022-10-19T13:32:39;96812.25;;;18.67;85.30
13604;BME280;24578;48.264;11.436;2022-10-19T13:35:40;96809.63;;;18.67;85.56
13604;BME280;24578;48.264;11.436;2022-10-19T13:41:50;96805.28;;;18.58;86.20
13604;BME280;24578;48.264;11.436;2022-10-19T13:44:50;96803.03;;;18.63;86.13
13604;BME280;24578;48.264;11.436;2022-10-19T13:47:54;96801.38;;;18.62;86.52
13604;BME280;24578;48.264;11.436;2022-10-19T13:50:57;96799.72;;;18.42;87.86
13604;BME280;24578;48.264;11.436;2022-10-19T14:00:21;96793.13;;;18.10;90.20
13604;BME280;24578;48.264;11.436;2022-10-19T14:03:49;96790.88;;;18.16;89.83
13604;BME280;24578;48.264;11.436;2022-10-19T14:06:59;96784.56;;;18.08;91.58
13604;BME280;24578;48.264;11.436;2022-10-19T14:10:11;96787.78;;;18.02;91.79
13604;BME280;24578;48.264;11.436;2022-10-19T14:13:14;96787.34;;;17.97;91.42
13604;BME280;24578;48.264;11.436;2022-10-19T14:16:21;96785.53;;;17.60;92.71
13604;BME280;24578;48.264;11.436;2022-10-19T14:19:32;96782.28;;;17.38;92.32
13604;BME280;24578;48.264;11.436;2022-10-19T14:22:33;96774.97;;;17.42;92.01
13604;BME280;24578;48.264;11.436;2022-10-19T14:25:34;96766.56;;;17.48;91.95
13604;BME280;24578;48.264;11.436;2022-10-19T14:28:36;96764.88;;;17.67;91.12
13604;BME280;24578;48.264;11.436;2022-10-19T14:31:36;96766.09;;;17.72;91.44
13604;BME280;24578;48.264;11.436;2022-10-19T14:34:38;96768.19;;;17.59;91.32
13604;BME280;24578;48.264;11.436;2022-10-19T14:37:38;96769.88;;;17.50;91.04
13604;BME280;24578;48.264;11.436;2022-10-19T14:40:42;96762.84;;;17.50;90.60
13604;BME280;24578;48.264;11.436;2022-10-19T14:43:42;96763.25;;;17.56;90.70
13604;BME280;24578;48.264;11.436;2022-10-19T14:46:42;96756.53;;;17.33;92.30
13604;BME280;24578;48.264;11.436;2022-10-19T14:49:46;96757.53;;;17.23;93.31
13604;BME280;24578;48.264;11.436;2022-10-19T14:52:46;96750.22;;;17.26;92.87
13604;BME280;24578;48.264;11.436;2022-10-19T14:55:48;96748.81;;;17.42;93.70
13604;BME280;24578;48.264;11.436;2022-10-19T15:02:25;96748.97;;;17.20;95.42
13604;BME280;24578;48.264;11.436;2022-10-19T15:05:28;96741.16;;;17.01;94.85
13604;BME280;24578;48.264;11.436;2022-10-19T15:08:31;96745.69;;;16.79;95.28
13604;BME280;24578;48.264;11.436;2022-10-19T15:11:37;96750.06;;;16.69;95.49
13604;BME280;24578;48.264;11.436;2022-10-19T15:14:38;96755.41;;;16.48;97.16
13604;BME280;24578;48.264;11.436;2022-10-19T15:17:47;96748.41;;;16.48;98.03
13604;BME280;24578;48.264;11.436;2022-10-19T15:21:02;96750.19;;;16.48;98.07
13604;BME280;24578;48.264;11.436;2022-10-19T15:24:07;96757.47;;;16.44;99.10
13604;BME280;24578;48.264;11.436;2022-10-19T15:27:19;96752.81;;;16.48;99.76
13604;BME280;24578;48.264;11.436;2022-10-19T15:30:23;96751.28;;;16.35;99.75
13604;BME280;24578;48.264;11.436;2022-10-19T15:33:24;96743.56;;;16.24;100.00
13604;BME280;24578;48.264;11.436;2022-10-19T15:36:25;96736.25;;;16.18;100.00
13604;BME280;24578;48.264;11.436;2022-10-19T15:39:29;96725.78;;;16.08;100.00
13604;BME280;24578;48.264;11.436;2022-10-19T15:42:38;96726.16;;;15.93;100.00
13604;BME280;24578;48.264;11.436;2022-10-19T15:45:39;96729.50;;;15.74;100.00
13604;BME280;24578;48.264;11.436;2022-10-19T15:51:44;96727.44;;;15.47;100.00
13604;BME280;24578;48.264;11.436;2022-10-19T15:54:48;96719.81;;;15.34;100.00
13604;BME280;24578;48.264;11.436;2022-10-19T15:57:48;96732.91;;;15.22;100.00
13604;BME280;24578;48.264;11.436;2022-10-19T16:00:56;96734.09;;;15.09;100.00
13604;BME280;24578;48.264;11.436;2022-10-19T16:03:57;96738.53;;;14.97;100.00
13604;BME280;24578;48.264;11.436;2022-10-19T16:06:57;96730.63;;;14.87;100.00
13604;BME280;24578;48.264;11.436;2022-10-19T16:10:00;96712.81;;;14.71;100.00
13604;BME280;24578;48.264;11.436;2022-10-19T16:13:01;96718.88;;;14.60;100.00
13604;BME280;24578;48.264;11.436;2022-10-19T16:16:03;96723.44;;;14.46;100.00
13604;BME280;24578;48.264;11.436;2022-10-19T16:19:03;96721.69;;;14.36;100.00
13604;BME280;24578;48.264;11.436;2022-10-19T16:22:04;96724.31;;;14.24;100.00
13604;BME280;24578;48.264;11.436;2022-10-19T16:25:04;96715.47;;;14.15;100.00
13604;BME280;24578;48.264;11.436;2022-10-19T16:28:05;96725.75;;;14.06;100.00
13604;BME280;24578;48.264;11.436;2022-10-19T16:31:05;96723.06;;;13.96;100.00
13604;BME280;24578;48.264;11.436;2022-10-19T16:34:05;96720.47;;;13.84;100.00
13604;BME280;24578;48.264;11.436;2022-10-19T16:37:05;96717.75;;;13.75;100.00
13604;BME280;24578;48.264;11.436;2022-10-19T16:40:05;96728.63;;;13.68;100.00
13604;BME280;24578;48.264;11.436;2022-10-19T16:43:06;96729.09;;;13.62;100.00
13604;BME280;24578;48.264;11.436;2022-10-19T16:46:06;96742.22;;;13.61;100.00
13604;BME280;24578;48.264;11.436;2022-10-19T16:49:06;96740.69;;;13.58;100.00
13604;BME280;24578;48.264;11.436;2022-10-19T16:52:07;96738.09;;;13.58;100.00
13604;BME280;24578;48.264;11.436;2022-10-19T16:55:07;96735.59;;;13.57;100.00
13604;BME280;24578;48.264;11.436;2022-10-19T16:58:07;96740.91;;;13.55;100.00
13604;BME280;24578;48.264;11.436;2022-10-19T17:01:15;96745.41;;;13.53;100.00
13604;BME280;24578;48.264;11.436;2022-10-19T17:04:16;96745.63;;;13.50;100.00
13604;BME280;24578;48.264;11.436;2022-10-19T17:07:17;96742.44;;;13.46;100.00
13604;BME280;24578;48.264;11.436;2022-10-19T17:10:17;96743.50;;;13.44;100.00
13604;BME280;24578;48.264;11.436;2022-10-19T17:13:17;96737.78;;;13.38;100.00
13604;BME280;24578;48.264;11.436;2022-10-19T17:16:18;96734.59;;;13.35;100.00
13604;BME280;24578;48.264;11.436;2022-10-19T17:19:18;96732.66;;;13.25;100.00
13604;BME280;24578;48.264;11.436;2022-10-19T17:22:18;96739.50;;;13.15;100.00
13604;BME280;24578;48.264;11.436;2022-10-19T17:25:23;96733.47;;;13.03;100.00
13604;BME280;24578;48.264;11.436;2022-10-19T17:28:25;96726.34;;;12.94;100.00
13604;BME280;24578;48.264;11.436;2022-10-19T17:31:26;96726.19;;;12.84;100.00
13604;BME280;24578;48.264;11.436;2022-10-19T17:34:27;96721.56;;;12.76;100.00
13604;BME280;24578;48.264;11.436;2022-10-19T17:37:27;96727.09;;;12.72;100.00